sensor_id;sensor_type;location;lat;lon;timestamp;pressure;altitude;pressure_sealevel;temperature;humidity
85163;BME280;75527;48.526;9.158;2024-01-10T00:00:13;97947.69;;;-6.14;71.52
85163;BME280;75527;48.526;9.158;2024-01-10T00:02:38;97940.22;;;-6.17;71.27
85163;BME280;75527;48.526;9.158;2024-01-10T00:05:04;97914.66;;;-6.28;71.40
85163;BME280;75527;48.526;9.158;2024-01-10T00:07:29;97913.88;;;-6.48;73.24
85163;BME280;75527;48.526;9.158;2024-01-10T00:09:55;97917.41;;;-6.49;73.29
85163;BME280;75527;48.526;9.158;2024-01-10T00:12:21;97929.69;;;-6.24;72.51
85163;BME280;75527;48.526;9.158;2024-01-10T00:14:46;97951.47;;;-6.09;71.88
85163;BME280;75527;48.526;9.158;2024-01-10T00:17:11;97914.13;;;-6.32;72.62
85163;BME280;75527;48.526;9.158;2024-01-10T00:19:37;97932.78;;;-6.20;72.31
85163;BME280;75527;48.526;9.158;2024-01-10T00:22:02;97926.72;;;-6.29;72.18
85163;BME280;75527;48.526;9.158;2024-01-10T00:24:28;97937.53;;;-6.25;72.71
85163;BME280;75527;48.526;9.158;2024-01-10T00:26:53;97968.25;;;-6.05;72.50
85163;BME280;75527;48.526;9.158;2024-01-10T00:29:18;97884.22;;;-6.52;71.95
85163;BME280;75527;48.526;9.158;2024-01-10T00:31:44;97920.75;;;-6.30;72.22
85163;BME280;75527;48.526;9.158;2024-01-10T00:34:09;97896.81;;;-6.40;72.38
85163;BME280;75527;48.526;9.158;2024-01-10T00:36:35;97866.94;;;-6.60;72.17
85163;BME280;75527;48.526;9.158;2024-01-10T00:39:00;97909.78;;;-6.32;72.17
85163;BME280;75527;48.526;9.158;2024-01-10T00:41:26;97840.97;;;-6.76;72.52
85163;BME280;75527;48.526;9.158;2024-01-10T00:43:51;97937.09;;;-6.11;73.11
85163;BME280;75527;48.526;9.158;2024-01-10T00:46:16;97942.50;;;-6.05;73.18
85163;BME280;75527;48.526;9.158;2024-01-10T00:48:42;97918.41;;;-6.13;72.84
85163;BME280;75527;48.526;9.158;2024-01-10T00:51:07;97924.09;;;-6.10;73.16
85163;BME280;75527;48.526;9.158;2024-01-10T00:53:36;97918.50;;;-6.05;72.84
85163;BME280;75527;48.526;9.158;2024-01-10T00:56:04;97910.28;;;-6.09;72.18
85163;BME280;75527;48.526;9.158;2024-01-10T00:58:30;97936.84;;;-5.90;72.00
85163;BME280;75527;48.526;9.158;2024-01-10T01:00:55;97914.75;;;-6.20;72.31
85163;BME280;75527;48.526;9.158;2024-01-10T01:03:20;97918.69;;;-6.16;73.37
85163;BME280;75527;48.526;9.158;2024-01-10T01:05:45;97933.28;;;-6.07;73.07
85163;BME280;75527;48.526;9.158;2024-01-10T01:08:11;97948.41;;;-5.94;72.93
85163;BME280;75527;48.526;9.158;2024-01-10T01:10:36;97931.09;;;-6.02;73.51
85163;BME280;75527;48.526;9.158;2024-01-10T01:13:01;97949.69;;;-5.81;72.56
85163;BME280;75527;48.526;9.158;2024-01-10T01:15:27;97937.66;;;-5.90;72.58
85163;BME280;75527;48.526;9.158;2024-01-10T01:17:52;97929.00;;;-5.89;72.89
85163;BME280;75527;48.526;9.158;2024-01-10T01:20:17;97925.75;;;-5.91;73.08
85163;BME280;75527;48.526;9.158;2024-01-10T01:22:43;97917.06;;;-5.90;73.08
85163;BME280;75527;48.526;9.158;2024-01-10T01:25:08;97898.28;;;-6.00;73.25
85163;BME280;75527;48.526;9.158;2024-01-10T01:27:34;97936.78;;;-5.71;72.67
85163;BME280;75527;48.526;9.158;2024-01-10T01:29:59;97957.34;;;-5.61;72.15
85163;BME280;75527;48.526;9.158;2024-01-10T01:32:24;97947.31;;;-5.64;72.78
85163;BME280;75527;48.526;9.158;2024-01-10T01:34:49;97931.00;;;-5.83;72.58
85163;BME280;75527;48.526;9.158;2024-01-10T01:37:15;97922.22;;;-5.90;72.28
85163;BME280;75527;48.526;9.158;2024-01-10T01:39:40;97957.19;;;-5.60;72.48
85163;BME280;75527;48.526;9.158;2024-01-10T01:42:05;97942.84;;;-5.62;71.88
85163;BME280;75527;48.526;9.158;2024-01-10T01:44:31;97946.09;;;-5.60;72.38
85163;BME280;75527;48.526;9.158;2024-01-10T01:46:57;97931.66;;;-5.81;72.10
85163;BME280;75527;48.526;9.158;2024-01-10T01:49:23;97920.97;;;-5.86;72.58
85163;BME280;75527;48.526;9.158;2024-01-10T01:51:50;97954.47;;;-5.58;72.28
85163;BME280;75527;48.526;9.158;2024-01-10T01:54:16;97936.09;;;-5.63;72.61
85163;BME280;75527;48.526;9.158;2024-01-10T01:56:43;97946.19;;;-5.52;72.52
85163;BME280;75527;48.526;9.158;2024-01-10T01:59:09;97936.91;;;-5.63;73.47
85163;BME280;75527;48.526;9.158;2024-01-10T02:01:35;97946.31;;;-5.54;73.58
85163;BME280;75527;48.526;9.158;2024-01-10T02:04:01;97943.63;;;-5.52;72.59
85163;BME280;75527;48.526;9.158;2024-01-10T02:06:28;97916.78;;;-5.59;73.65
85163;BME280;75527;48.526;9.158;2024-01-10T02:08:54;97919.97;;;-5.75;73.28
85163;BME280;75527;48.526;9.158;2024-01-10T02:11:20;97899.56;;;-5.86;73.46
85163;BME280;75527;48.526;9.158;2024-01-10T02:13:46;97910.75;;;-5.68;73.29
85163;BME280;75527;48.526;9.158;2024-01-10T02:16:11;97913.56;;;-5.61;73.48
85163;BME280;75527;48.526;9.158;2024-01-10T02:18:37;97888.50;;;-5.69;73.27
85163;BME280;75527;48.526;9.158;2024-01-10T02:21:03;97943.50;;;-5.33;73.62
85163;BME280;75527;48.526;9.158;2024-01-10T02:23:28;97899.13;;;-5.54;73.65
85163;BME280;75527;48.526;9.158;2024-01-10T02:25:54;97891.84;;;-5.59;72.28
85163;BME280;75527;48.526;9.158;2024-01-10T02:28:19;97931.13;;;-5.29;71.41
85163;BME280;75527;48.526;9.158;2024-01-10T02:30:44;97878.69;;;-5.56;71.56
85163;BME280;75527;48.526;9.158;2024-01-10T02:33:10;97895.00;;;-5.37;73.34
85163;BME280;75527;48.526;9.158;2024-01-10T02:35:35;97927.38;;;-5.17;73.17
85163;BME280;75527;48.526;9.158;2024-01-10T02:38:01;97932.41;;;-5.15;72.59
85163;BME280;75527;48.526;9.158;2024-01-10T02:40:26;97911.03;;;-5.26;73.18
85163;BME280;75527;48.526;9.158;2024-01-10T02:42:52;97938.31;;;-4.87;71.76
85163;BME280;75527;48.526;9.158;2024-01-10T02:45:17;97914.69;;;-5.01;71.58
85163;BME280;75527;48.526;9.158;2024-01-10T02:47:43;97896.53;;;-5.27;72.75
85163;BME280;75527;48.526;9.158;2024-01-10T02:50:08;97893.44;;;-5.12;72.14
85163;BME280;75527;48.526;9.158;2024-01-10T02:52:34;97906.03;;;-5.27;74.47
85163;BME280;75527;48.526;9.158;2024-01-10T02:54:59;97927.31;;;-5.07;73.35
85163;BME280;75527;48.526;9.158;2024-01-10T02:57:24;97762.34;;;-6.14;74.08
85163;BME280;75527;48.526;9.158;2024-01-10T02:59:50;97923.94;;;-5.08;74.05
85163;BME280;75527;48.526;9.158;2024-01-10T03:02:15;97900.06;;;-5.28;74.16
85163;BME280;75527;48.526;9.158;2024-01-10T03:04:41;97921.59;;;-5.01;73.83
85163;BME280;75527;48.526;9.158;2024-01-10T03:07:06;97875.69;;;-5.33;73.26
85163;BME280;75527;48.526;9.158;2024-01-10T03:09:32;97852.75;;;-5.54;74.16
85163;BME280;75527;48.526;9.158;2024-01-10T03:11:57;97813.88;;;-5.79;74.32
85163;BME280;75527;48.526;9.158;2024-01-10T03:14:22;97874.13;;;-5.44;74.61
85163;BME280;75527;48.526;9.158;2024-01-10T03:16:48;97868.75;;;-5.51;75.11
85163;BME280;75527;48.526;9.158;2024-01-10T03:19:14;97856.56;;;-5.58;75.36
85163;BME280;75527;48.526;9.158;2024-01-10T03:21:39;97876.75;;;-5.54;75.61
85163;BME280;75527;48.526;9.158;2024-01-10T03:24:05;97897.56;;;-5.37;75.78
85163;BME280;75527;48.526;9.158;2024-01-10T03:26:30;97881.84;;;-5.44;75.00
85163;BME280;75527;48.526;9.158;2024-01-10T03:28:56;97881.41;;;-5.39;75.12
85163;BME280;75527;48.526;9.158;2024-01-10T03:31:21;97843.53;;;-5.74;75.29
85163;BME280;75527;48.526;9.158;2024-01-10T03:33:46;97899.19;;;-5.36;75.17
85163;BME280;75527;48.526;9.158;2024-01-10T03:36:14;97883.09;;;-5.48;75.19
85163;BME280;75527;48.526;9.158;2024-01-10T03:38:40;97874.59;;;-5.58;75.41
85163;BME280;75527;48.526;9.158;2024-01-10T03:41:05;97873.75;;;-5.49;75.70
85163;BME280;75527;48.526;9.158;2024-01-10T03:43:31;97858.13;;;-5.65;75.76
85163;BME280;75527;48.526;9.158;2024-01-10T03:45:57;97865.03;;;-5.66;75.79
85163;BME280;75527;48.526;9.158;2024-01-10T03:48:22;97884.63;;;-5.55;76.12
85163;BME280;75527;48.526;9.158;2024-01-10T03:50:48;97904.91;;;-5.42;75.89
85163;BME280;75527;48.526;9.158;2024-01-10T03:53:13;97861.13;;;-5.70;76.12
85163;BME280;75527;48.526;9.158;2024-01-10T03:55:38;97871.97;;;-5.66;75.90
85163;BME280;75527;48.526;9.158;2024-01-10T03:58:04;97866.72;;;-5.74;75.89
85163;BME280;75527;48.526;9.158;2024-01-10T04:00:29;97891.19;;;-5.61;76.11
85163;BME280;75527;48.526;9.158;2024-01-10T04:02:55;97915.78;;;-5.48;76.48
85163;BME280;75527;48.526;9.158;2024-01-10T04:05:20;97913.72;;;-5.45;75.47
85163;BME280;75527;48.526;9.158;2024-01-10T04:07:45;97903.69;;;-5.48;75.72
85163;BME280;75527;48.526;9.158;2024-01-10T04:10:11;97890.53;;;-5.45;75.53
85163;BME280;75527;48.526;9.158;2024-01-10T04:12:39;97843.53;;;-5.74;74.59
85163;BME280;75527;48.526;9.158;2024-01-10T04:15:05;97901.16;;;-5.30;74.38
85163;BME280;75527;48.526;9.158;2024-01-10T04:17:31;97913.03;;;-5.19;74.33
85163;BME280;75527;48.526;9.158;2024-01-10T04:19:56;97914.66;;;-5.18;73.88
85163;BME280;75527;48.526;9.158;2024-01-10T04:22:23;97900.00;;;-5.36;73.67
85163;BME280;75527;48.526;9.158;2024-01-10T04:24:49;97904.41;;;-5.28;74.08
85163;BME280;75527;48.526;9.158;2024-01-10T04:27:15;97889.84;;;-5.37;74.70
85163;BME280;75527;48.526;9.158;2024-01-10T04:29:40;97884.47;;;-5.26;73.03
85163;BME280;75527;48.526;9.158;2024-01-10T04:32:06;97904.66;;;-5.21;73.54
85163;BME280;75527;48.526;9.158;2024-01-10T04:34:31;97886.41;;;-5.38;74.20
85163;BME280;75527;48.526;9.158;2024-01-10T04:36:56;97870.09;;;-5.46;73.94
85163;BME280;75527;48.526;9.158;2024-01-10T04:39:22;97882.00;;;-5.28;74.30
85163;BME280;75527;48.526;9.158;2024-01-10T04:41:47;97901.03;;;-5.11;74.19
85163;BME280;75527;48.526;9.158;2024-01-10T04:44:12;97913.88;;;-5.01;74.36
85163;BME280;75527;48.526;9.158;2024-01-10T04:46:38;97904.56;;;-5.12;74.12
85163;BME280;75527;48.526;9.158;2024-01-10T04:49:03;97888.66;;;-5.25;73.92
85163;BME280;75527;48.526;9.158;2024-01-10T04:51:28;97916.25;;;-5.17;73.99
85163;BME280;75527;48.526;9.158;2024-01-10T04:53:54;97882.81;;;-5.45;73.13
85163;BME280;75527;48.526;9.158;2024-01-10T04:56:20;97887.00;;;-5.44;73.56
85163;BME280;75527;48.526;9.158;2024-01-10T04:58:46;97922.00;;;-5.24;73.47
85163;BME280;75527;48.526;9.158;2024-01-10T05:01:11;97915.84;;;-5.13;73.27
85163;BME280;75527;48.526;9.158;2024-01-10T05:03:36;97918.13;;;-5.10;73.14
85163;BME280;75527;48.526;9.158;2024-01-10T05:06:02;97897.63;;;-5.29;73.51
85163;BME280;75527;48.526;9.158;2024-01-10T05:08:27;97897.84;;;-5.22;73.09
85163;BME280;75527;48.526;9.158;2024-01-10T05:10:52;97886.28;;;-5.36;72.54
85163;BME280;75527;48.526;9.158;2024-01-10T05:13:18;97917.22;;;-5.18;72.54
85163;BME280;75527;48.526;9.158;2024-01-10T05:15:43;97872.59;;;-5.37;71.77
85163;BME280;75527;48.526;9.158;2024-01-10T05:18:09;97900.94;;;-5.19;71.96
85163;BME280;75527;48.526;9.158;2024-01-10T05:20:35;97914.22;;;-5.14;72.02
85163;BME280;75527;48.526;9.158;2024-01-10T05:23:00;97904.34;;;-5.18;72.23
85163;BME280;75527;48.526;9.158;2024-01-10T05:25:26;97879.81;;;-5.40;73.30
85163;BME280;75527;48.526;9.158;2024-01-10T05:27:52;97911.69;;;-5.24;73.38
85163;BME280;75527;48.526;9.158;2024-01-10T05:30:17;97869.94;;;-5.45;73.54
85163;BME280;75527;48.526;9.158;2024-01-10T05:32:44;97911.41;;;-5.20;73.68
85163;BME280;75527;48.526;9.158;2024-01-10T05:35:09;97919.31;;;-5.22;73.30
85163;BME280;75527;48.526;9.158;2024-01-10T05:37:35;97920.97;;;-5.31;73.69
85163;BME280;75527;48.526;9.158;2024-01-10T05:40:01;97924.94;;;-5.36;74.35
85163;BME280;75527;48.526;9.158;2024-01-10T05:42:26;97934.72;;;-5.40;74.43
85163;BME280;75527;48.526;9.158;2024-01-10T05:44:51;97909.16;;;-5.51;74.40
85163;BME280;75527;48.526;9.158;2024-01-10T05:47:17;97925.84;;;-5.55;74.69
85163;BME280;75527;48.526;9.158;2024-01-10T05:49:42;97913.19;;;-5.66;75.21
85163;BME280;75527;48.526;9.158;2024-01-10T05:52:08;97894.38;;;-5.77;75.44
85163;BME280;75527;48.526;9.158;2024-01-10T05:54:33;97928.97;;;-5.52;75.55
85163;BME280;75527;48.526;9.158;2024-01-10T05:56:58;97899.25;;;-5.73;75.69
85163;BME280;75527;48.526;9.158;2024-01-10T05:59:26;97902.22;;;-5.68;75.92
85163;BME280;75527;48.526;9.158;2024-01-10T06:01:51;97922.09;;;-5.61;75.67
85163;BME280;75527;48.526;9.158;2024-01-10T06:04:16;97921.44;;;-5.63;75.60
85163;BME280;75527;48.526;9.158;2024-01-10T06:06:42;97926.88;;;-5.66;76.21
85163;BME280;75527;48.526;9.158;2024-01-10T06:09:07;97903.88;;;-5.77;75.71
85163;BME280;75527;48.526;9.158;2024-01-10T06:11:40;97898.50;;;-5.84;76.01
85163;BME280;75527;48.526;9.158;2024-01-10T06:14:06;97884.19;;;-5.96;76.37
85163;BME280;75527;48.526;9.158;2024-01-10T06:16:31;97925.44;;;-5.78;76.37
85163;BME280;75527;48.526;9.158;2024-01-10T06:18:56;97904.13;;;-5.98;76.68
85163;BME280;75527;48.526;9.158;2024-01-10T06:21:22;97911.72;;;-5.96;76.68
85163;BME280;75527;48.526;9.158;2024-01-10T06:23:47;97875.72;;;-6.16;76.94
85163;BME280;75527;48.526;9.158;2024-01-10T06:26:12;97903.22;;;-6.07;76.60
85163;BME280;75527;48.526;9.158;2024-01-10T06:28:37;97921.41;;;-5.90;76.33
85163;BME280;75527;48.526;9.158;2024-01-10T06:31:04;97929.94;;;-5.90;76.93
85163;BME280;75527;48.526;9.158;2024-01-10T06:33:29;97923.63;;;-5.95;76.26
85163;BME280;75527;48.526;9.158;2024-01-10T06:35:54;97926.06;;;-5.94;76.01
85163;BME280;75527;48.526;9.158;2024-01-10T06:38:20;97908.13;;;-6.13;75.83
85163;BME280;75527;48.526;9.158;2024-01-10T06:40:47;97892.53;;;-6.12;76.03
85163;BME280;75527;48.526;9.158;2024-01-10T06:43:14;97917.03;;;-6.08;76.05
85163;BME280;75527;48.526;9.158;2024-01-10T06:45:39;97933.69;;;-6.02;76.53
85163;BME280;75527;48.526;9.158;2024-01-10T06:48:05;97908.69;;;-6.19;77.25
85163;BME280;75527;48.526;9.158;2024-01-10T06:50:31;97898.13;;;-6.26;77.15
85163;BME280;75527;48.526;9.158;2024-01-10T06:52:57;97910.56;;;-6.21;76.99
85163;BME280;75527;48.526;9.158;2024-01-10T06:55:22;97914.50;;;-6.17;76.64
85163;BME280;75527;48.526;9.158;2024-01-10T06:57:49;97915.84;;;-6.23;76.84
85163;BME280;75527;48.526;9.158;2024-01-10T07:00:16;97940.63;;;-6.12;77.33
85163;BME280;75527;48.526;9.158;2024-01-10T07:02:43;97913.31;;;-6.33;77.42
85163;BME280;75527;48.526;9.158;2024-01-10T07:05:09;97920.19;;;-6.23;77.67
85163;BME280;75527;48.526;9.158;2024-01-10T07:07:34;97944.41;;;-6.16;77.52
85163;BME280;75527;48.526;9.158;2024-01-10T07:10:01;97913.03;;;-6.30;77.31
85163;BME280;75527;48.526;9.158;2024-01-10T07:12:30;97949.00;;;-6.10;76.94
85163;BME280;75527;48.526;9.158;2024-01-10T07:14:55;97944.00;;;-6.12;75.99
85163;BME280;75527;48.526;9.158;2024-01-10T07:17:21;97906.81;;;-6.37;77.50
85163;BME280;75527;48.526;9.158;2024-01-10T07:19:48;97952.81;;;-6.14;77.52
85163;BME280;75527;48.526;9.158;2024-01-10T07:22:13;97937.97;;;-6.30;77.02
85163;BME280;75527;48.526;9.158;2024-01-10T07:24:38;97955.00;;;-6.19;76.98
85163;BME280;75527;48.526;9.158;2024-01-10T07:27:04;97963.53;;;-6.09;77.01
85163;BME280;75527;48.526;9.158;2024-01-10T07:29:30;97965.13;;;-6.08;76.81
85163;BME280;75527;48.526;9.158;2024-01-10T07:31:56;97968.66;;;-6.09;77.48
85163;BME280;75527;48.526;9.158;2024-01-10T07:34:21;97967.41;;;-6.05;77.59
85163;BME280;75527;48.526;9.158;2024-01-10T07:36:47;97974.31;;;-5.96;77.69
85163;BME280;75527;48.526;9.158;2024-01-10T07:39:12;97977.56;;;-5.94;77.63
85163;BME280;75527;48.526;9.158;2024-01-10T07:41:41;97987.03;;;-5.94;77.84
85163;BME280;75527;48.526;9.158;2024-01-10T07:44:06;97959.31;;;-6.10;77.40
85163;BME280;75527;48.526;9.158;2024-01-10T07:46:32;97977.19;;;-5.99;76.81
85163;BME280;75527;48.526;9.158;2024-01-10T07:48:59;97986.91;;;-5.93;77.82
85163;BME280;75527;48.526;9.158;2024-01-10T07:51:25;97962.25;;;-6.05;77.44
85163;BME280;75527;48.526;9.158;2024-01-10T07:53:51;97979.31;;;-5.94;78.18
85163;BME280;75527;48.526;9.158;2024-01-10T07:56:16;97981.81;;;-5.85;77.73
85163;BME280;75527;48.526;9.158;2024-01-10T07:58:41;97955.47;;;-5.96;77.16
85163;BME280;75527;48.526;9.158;2024-01-10T08:01:07;97969.25;;;-5.88;77.33
85163;BME280;75527;48.526;9.158;2024-01-10T08:03:32;97984.53;;;-5.77;77.54
85163;BME280;75527;48.526;9.158;2024-01-10T08:05:58;97991.69;;;-5.70;76.95
85163;BME280;75527;48.526;9.158;2024-01-10T08:08:24;97996.56;;;-5.67;77.38
85163;BME280;75527;48.526;9.158;2024-01-10T08:10:49;98001.44;;;-5.74;77.45
85163;BME280;75527;48.526;9.158;2024-01-10T08:13:14;97995.47;;;-5.65;77.48
85163;BME280;75527;48.526;9.158;2024-01-10T08:15:40;97990.94;;;-5.90;77.03
85163;BME280;75527;48.526;9.158;2024-01-10T08:18:06;98009.63;;;-5.79;77.39
85163;BME280;75527;48.526;9.158;2024-01-10T08:20:32;98012.06;;;-5.87;76.83
85163;BME280;75527;48.526;9.158;2024-01-10T08:22:58;97975.81;;;-6.03;77.30
85163;BME280;75527;48.526;9.158;2024-01-10T08:25:23;97969.88;;;-6.13;77.79
85163;BME280;75527;48.526;9.158;2024-01-10T08:27:48;97999.66;;;-5.91;77.16
85163;BME280;75527;48.526;9.158;2024-01-10T08:30:14;98004.59;;;-5.90;77.17
85163;BME280;75527;48.526;9.158;2024-01-10T08:32:40;98007.59;;;-5.85;77.23
85163;BME280;75527;48.526;9.158;2024-01-10T08:35:06;98020.97;;;-5.71;76.48
85163;BME280;75527;48.526;9.158;2024-01-10T08:37:34;98013.44;;;-5.83;76.45
85163;BME280;75527;48.526;9.158;2024-01-10T08:39:59;98000.66;;;-5.84;76.87
85163;BME280;75527;48.526;9.158;2024-01-10T08:42:26;98003.22;;;-5.74;76.93
85163;BME280;75527;48.526;9.158;2024-01-10T08:44:51;98020.13;;;-5.62;76.93
85163;BME280;75527;48.526;9.158;2024-01-10T08:47:16;98031.34;;;-5.54;76.50
85163;BME280;75527;48.526;9.158;2024-01-10T08:49:41;98003.59;;;-5.69;75.60
85163;BME280;75527;48.526;9.158;2024-01-10T08:52:07;98016.84;;;-5.55;76.19
85163;BME280;75527;48.526;9.158;2024-01-10T08:54:33;98038.19;;;-5.35;76.01
85163;BME280;75527;48.526;9.158;2024-01-10T08:56:58;98012.78;;;-5.47;75.43
85163;BME280;75527;48.526;9.158;2024-01-10T08:59:25;98011.38;;;-5.42;75.49
85163;BME280;75527;48.526;9.158;2024-01-10T09:01:52;98013.38;;;-5.36;75.81
85163;BME280;75527;48.526;9.158;2024-01-10T09:04:18;98013.53;;;-5.37;75.34
85163;BME280;75527;48.526;9.158;2024-01-10T09:06:45;98019.97;;;-5.24;75.25
85163;BME280;75527;48.526;9.158;2024-01-10T09:09:10;98038.06;;;-5.06;74.52
85163;BME280;75527;48.526;9.158;2024-01-10T09:11:35;98012.28;;;-5.33;75.08
85163;BME280;75527;48.526;9.158;2024-01-10T09:14:01;98024.31;;;-5.24;74.53
85163;BME280;75527;48.526;9.158;2024-01-10T09:16:26;98025.88;;;-5.13;74.82
85163;BME280;75527;48.526;9.158;2024-01-10T09:18:52;98025.63;;;-5.10;74.06
85163;BME280;75527;48.526;9.158;2024-01-10T09:21:21;98018.69;;;-5.10;74.45
85163;BME280;75527;48.526;9.158;2024-01-10T09:23:47;98014.44;;;-5.01;73.99
85163;BME280;75527;48.526;9.158;2024-01-10T09:26:16;98051.84;;;-4.69;74.07
85163;BME280;75527;48.526;9.158;2024-01-10T09:28:41;98053.16;;;-4.65;74.02
85163;BME280;75527;48.526;9.158;2024-01-10T09:31:07;98030.84;;;-4.57;73.07
85163;BME280;75527;48.526;9.158;2024-01-10T09:33:32;98062.75;;;-4.40;73.09
85163;BME280;75527;48.526;9.158;2024-01-10T09:35:58;98058.63;;;-4.51;73.25
85163;BME280;75527;48.526;9.158;2024-01-10T09:38:23;98053.69;;;-4.26;71.81
85163;BME280;75527;48.526;9.158;2024-01-10T09:40:48;98034.38;;;-4.40;71.29
85163;BME280;75527;48.526;9.158;2024-01-10T09:43:14;97982.47;;;-4.73;71.55
85163;BME280;75527;48.526;9.158;2024-01-10T09:45:43;98053.53;;;-4.07;71.85
85163;BME280;75527;48.526;9.158;2024-01-10T09:48:13;98054.81;;;-3.85;70.82
85163;BME280;75527;48.526;9.158;2024-01-10T09:50:39;98014.63;;;-4.05;69.50
85163;BME280;75527;48.526;9.158;2024-01-10T09:53:07;98055.25;;;-3.72;68.65
85163;BME280;75527;48.526;9.158;2024-01-10T09:55:37;98053.31;;;-3.70;68.45
85163;BME280;75527;48.526;9.158;2024-01-10T09:58:06;98042.91;;;-3.78;68.83
85163;BME280;75527;48.526;9.158;2024-01-10T10:00:33;98039.41;;;-3.77;68.84
85163;BME280;75527;48.526;9.158;2024-01-10T10:02:59;98044.16;;;-3.64;69.19
85163;BME280;75527;48.526;9.158;2024-01-10T10:05:25;98037.56;;;-3.58;69.23
85163;BME280;75527;48.526;9.158;2024-01-10T10:07:51;98000.31;;;-3.74;68.63
85163;BME280;75527;48.526;9.158;2024-01-10T10:10:20;98040.56;;;-3.37;67.77
85163;BME280;75527;48.526;9.158;2024-01-10T10:12:50;98029.59;;;-3.31;67.00
85163;BME280;75527;48.526;9.158;2024-01-10T10:15:18;98032.88;;;-3.21;67.21
85163;BME280;75527;48.526;9.158;2024-01-10T10:17:45;98017.06;;;-3.18;67.16
85163;BME280;75527;48.526;9.158;2024-01-10T10:20:21;98049.97;;;-2.94;66.66
85163;BME280;75527;48.526;9.158;2024-01-10T10:25:24;98018.13;;;-2.86;65.04
85163;BME280;75527;48.526;9.158;2024-01-10T10:27:51;98044.59;;;-2.50;65.08
85163;BME280;75527;48.526;9.158;2024-01-10T10:30:17;98046.41;;;-2.10;63.78
85163;BME280;75527;48.526;9.158;2024-01-10T10:32:43;97994.88;;;-1.80;61.84
85163;BME280;75527;48.526;9.158;2024-01-10T10:35:08;97986.88;;;-1.15;60.18
85163;BME280;75527;48.526;9.158;2024-01-10T10:37:34;97964.56;;;-0.93;57.68
85163;BME280;75527;48.526;9.158;2024-01-10T10:39:59;98013.84;;;-0.16;56.14
85163;BME280;75527;48.526;9.158;2024-01-10T10:42:25;98035.28;;;0.24;55.22
85163;BME280;75527;48.526;9.158;2024-01-10T10:44:57;97993.22;;;0.80;53.56
85163;BME280;75527;48.526;9.158;2024-01-10T10:47:30;97980.19;;;1.30;50.93
85163;BME280;75527;48.526;9.158;2024-01-10T10:49:58;97974.91;;;1.88;49.36
85163;BME280;75527;48.526;9.158;2024-01-10T10:52:26;97967.69;;;2.53;47.87
85163;BME280;75527;48.526;9.158;2024-01-10T10:54:52;98022.16;;;3.52;45.23
85163;BME280;75527;48.526;9.158;2024-01-10T10:57:21;97970.47;;;3.60;43.80
85163;BME280;75527;48.526;9.158;2024-01-10T10:59:47;97993.78;;;4.61;41.76
85163;BME280;75527;48.526;9.158;2024-01-10T11:02:20;98000.88;;;5.82;38.97
85163;BME280;75527;48.526;9.158;2024-01-10T11:04:47;97998.13;;;6.02;37.92
85163;BME280;75527;48.526;9.158;2024-01-10T11:07:12;97965.50;;;6.16;37.16
85163;BME280;75527;48.526;9.158;2024-01-10T11:09:39;97974.75;;;6.62;36.20
85163;BME280;75527;48.526;9.158;2024-01-10T11:25:59;97994.88;;;7.53;33.72
85163;BME280;75527;48.526;9.158;2024-01-10T11:28:27;98003.78;;;7.82;33.60
85163;BME280;75527;48.526;9.158;2024-01-10T11:30:53;97996.16;;;7.63;34.04
85163;BME280;75527;48.526;9.158;2024-01-10T11:33:35;97969.84;;;7.02;34.91
85163;BME280;75527;48.526;9.158;2024-01-10T11:36:09;98010.59;;;6.75;35.79
85163;BME280;75527;48.526;9.158;2024-01-10T11:38:56;97987.16;;;6.92;35.83
85163;BME280;75527;48.526;9.158;2024-01-10T11:41:27;97993.63;;;7.08;35.38
85163;BME280;75527;48.526;9.158;2024-01-10T11:46:46;98014.22;;;6.12;38.09
85163;BME280;75527;48.526;9.158;2024-01-10T11:49:13;98009.13;;;5.86;39.89
85163;BME280;75527;48.526;9.158;2024-01-10T11:51:47;98004.94;;;5.78;38.92
85163;BME280;75527;48.526;9.158;2024-01-10T11:54:39;98007.94;;;5.82;38.94
85163;BME280;75527;48.526;9.158;2024-01-10T11:59:40;98009.66;;;5.69;40.54
85163;BME280;75527;48.526;9.158;2024-01-10T12:02:06;97971.25;;;5.05;40.76
85163;BME280;75527;48.526;9.158;2024-01-10T12:04:33;98003.94;;;4.96;41.82
85163;BME280;75527;48.526;9.158;2024-01-10T12:07:02;97984.53;;;4.39;42.58
85163;BME280;75527;48.526;9.158;2024-01-10T12:09:28;98006.06;;;4.67;43.69
85163;BME280;75527;48.526;9.158;2024-01-10T12:11:53;97974.13;;;4.19;44.54
85163;BME280;75527;48.526;9.158;2024-01-10T12:14:18;97984.34;;;4.40;43.42
85163;BME280;75527;48.526;9.158;2024-01-10T12:16:45;97956.19;;;4.29;42.87
85163;BME280;75527;48.526;9.158;2024-01-10T12:19:10;97961.84;;;4.06;43.91
85163;BME280;75527;48.526;9.158;2024-01-10T12:21:35;97990.22;;;3.89;46.44
85163;BME280;75527;48.526;9.158;2024-01-10T12:24:03;97980.97;;;4.20;44.08
85163;BME280;75527;48.526;9.158;2024-01-10T12:26:30;97979.47;;;4.70;41.84
85163;BME280;75527;48.526;9.158;2024-01-10T12:28:58;97990.59;;;5.81;40.61
85163;BME280;75527;48.526;9.158;2024-01-10T12:31:27;97978.75;;;5.40;40.77
85163;BME280;75527;48.526;9.158;2024-01-10T12:33:55;97947.13;;;4.96;41.35
85163;BME280;75527;48.526;9.158;2024-01-10T12:36:20;97962.94;;;5.53;40.28
85163;BME280;75527;48.526;9.158;2024-01-10T12:38:46;97967.06;;;5.67;40.12
85163;BME280;75527;48.526;9.158;2024-01-10T12:41:11;97982.94;;;6.11;39.18
85163;BME280;75527;48.526;9.158;2024-01-10T12:43:37;97978.22;;;5.88;40.27
85163;BME280;75527;48.526;9.158;2024-01-10T12:46:07;97978.53;;;5.73;40.68
85163;BME280;75527;48.526;9.158;2024-01-10T12:48:33;97980.84;;;5.88;40.06
85163;BME280;75527;48.526;9.158;2024-01-10T12:50:59;97975.50;;;5.44;40.61
85163;BME280;75527;48.526;9.158;2024-01-10T12:53:28;97948.28;;;5.70;39.38
85163;BME280;75527;48.526;9.158;2024-01-10T12:55:53;97948.34;;;5.26;41.21
85163;BME280;75527;48.526;9.158;2024-01-10T12:58:19;97977.06;;;4.56;43.83
85163;BME280;75527;48.526;9.158;2024-01-10T13:00:45;97980.31;;;4.44;44.67
85163;BME280;75527;48.526;9.158;2024-01-10T13:03:10;97949.66;;;4.58;43.22
85163;BME280;75527;48.526;9.158;2024-01-10T13:05:36;97962.28;;;4.75;43.07
85163;BME280;75527;48.526;9.158;2024-01-10T13:08:01;97952.25;;;4.65;43.85
85163;BME280;75527;48.526;9.158;2024-01-10T13:10:29;97966.78;;;4.61;43.57
85163;BME280;75527;48.526;9.158;2024-01-10T13:12:54;97950.47;;;4.65;43.72
85163;BME280;75527;48.526;9.158;2024-01-10T13:15:19;97956.09;;;4.62;43.96
85163;BME280;75527;48.526;9.158;2024-01-10T13:17:45;97964.31;;;4.73;43.83